sensor_id;sensor_type;location;lat;lon;timestamp;P1;durP1;ratioP1;P2;durP2;ratioP2
11004;SDS011;5555;59.622;16.556;2023-05-14T00:00:42;9.10;;;4.80;;
11004;SDS011;5555;59.622;16.556;2023-05-14T00:03:08;6.23;;;5.30;;
11004;SDS011;5555;59.622;16.556;2023-05-14T00:05:34;11.37;;;5.43;;
11004;SDS011;5555;59.622;16.556;2023-05-14T00:08:00;10.17;;;4.80;;
11004;SDS011;5555;59.622;16.556;2023-05-14T00:10:26;9.53;;;5.00;;
11004;SDS011;5555;59.622;16.556;2023-05-14T00:12:52;13.73;;;5.47;;
11004;SDS011;5555;59.622;16.556;2023-05-14T00:15:17;6.70;;;4.83;;
11004;SDS011;5555;59.622;16.556;2023-05-14T00:17:43;10.60;;;5.10;;
11004;SDS011;5555;59.622;16.556;2023-05-14T00:20:09;8.50;;;5.40;;
11004;SDS011;5555;59.622;16.556;2023-05-14T00:22:36;8.60;;;5.20;;
11004;SDS011;5555;59.622;16.556;2023-05-14T00:25:03;7.30;;;5.03;;
11004;SDS011;5555;59.622;16.556;2023-05-14T00:27:30;9.33;;;5.60;;
11004;SDS011;5555;59.622;16.556;2023-05-14T00:29:56;7.83;;;5.33;;
11004;SDS011;5555;59.622;16.556;2023-05-14T00:32:22;7.20;;;5.70;;
11004;SDS011;5555;59.622;16.556;2023-05-14T00:34:48;10.57;;;6.07;;
11004;SDS011;5555;59.622;16.556;2023-05-14T00:37:13;7.97;;;6.20;;
11004;SDS011;5555;59.622;16.556;2023-05-14T00:39:39;11.77;;;5.90;;
11004;SDS011;5555;59.622;16.556;2023-05-14T00:42:05;12.70;;;6.97;;
11004;SDS011;5555;59.622;16.556;2023-05-14T00:44:30;9.87;;;6.10;;
11004;SDS011;5555;59.622;16.556;2023-05-14T00:46:57;8.47;;;5.83;;
11004;SDS011;5555;59.622;16.556;2023-05-14T00:49:23;7.83;;;5.60;;
11004;SDS011;5555;59.622;16.556;2023-05-14T00:51:49;10.33;;;6.10;;
11004;SDS011;5555;59.622;16.556;2023-05-14T00:54:16;8.07;;;5.80;;
11004;SDS011;5555;59.622;16.556;2023-05-14T00:56:46;7.90;;;6.00;;
11004;SDS011;5555;59.622;16.556;2023-05-14T00:59:12;7.80;;;5.67;;
11004;SDS011;5555;59.622;16.556;2023-05-14T01:01:38;8.67;;;6.57;;
11004;SDS011;5555;59.622;16.556;2023-05-14T01:04:04;9.63;;;6.40;;
11004;SDS011;5555;59.622;16.556;2023-05-14T01:14:17;8.97;;;6.20;;
11004;SDS011;5555;59.622;16.556;2023-05-14T01:16:45;10.67;;;6.30;;
11004;SDS011;5555;59.622;16.556;2023-05-14T01:19:20;13.40;;;6.73;;
11004;SDS011;5555;59.622;16.556;2023-05-14T01:21:50;9.57;;;5.90;;
11004;SDS011;5555;59.622;16.556;2023-05-14T01:24:16;9.90;;;6.23;;
11004;SDS011;5555;59.622;16.556;2023-05-14T01:26:42;8.50;;;6.70;;
11004;SDS011;5555;59.622;16.556;2023-05-14T01:31:37;9.33;;;6.17;;
11004;SDS011;5555;59.622;16.556;2023-05-14T01:34:06;10.47;;;6.40;;
11004;SDS011;5555;59.622;16.556;2023-05-14T01:36:35;8.10;;;6.30;;
11004;SDS011;5555;59.622;16.556;2023-05-14T01:39:02;10.37;;;6.80;;
11004;SDS011;5555;59.622;16.556;2023-05-14T01:41:28;10.63;;;6.60;;
11004;SDS011;5555;59.622;16.556;2023-05-14T01:43:55;9.70;;;6.80;;
11004;SDS011;5555;59.622;16.556;2023-05-14T01:46:21;9.90;;;6.40;;
11004;SDS011;5555;59.622;16.556;2023-05-14T01:48:49;9.60;;;6.50;;
11004;SDS011;5555;59.622;16.556;2023-05-14T01:51:14;9.53;;;7.00;;
11004;SDS011;5555;59.622;16.556;2023-05-14T01:53:40;8.20;;;6.37;;
11004;SDS011;5555;59.622;16.556;2023-05-14T01:56:06;11.17;;;7.03;;
11004;SDS011;5555;59.622;16.556;2023-05-14T01:58:31;8.70;;;6.27;;
11004;SDS011;5555;59.622;16.556;2023-05-14T02:00:57;7.40;;;6.10;;
11004;SDS011;5555;59.622;16.556;2023-05-14T02:03:23;8.70;;;6.10;;
11004;SDS011;5555;59.622;16.556;2023-05-14T02:05:48;8.53;;;6.43;;
11004;SDS011;5555;59.622;16.556;2023-05-14T02:08:14;6.97;;;6.20;;
11004;SDS011;5555;59.622;16.556;2023-05-14T02:10:40;7.40;;;6.37;;
11004;SDS011;5555;59.622;16.556;2023-05-14T02:13:06;9.80;;;6.67;;
11004;SDS011;5555;59.622;16.556;2023-05-14T02:15:33;7.73;;;6.47;;
11004;SDS011;5555;59.622;16.556;2023-05-14T02:17:59;8.80;;;6.27;;
11004;SDS011;5555;59.622;16.556;2023-05-14T02:20:24;8.00;;;6.70;;
11004;SDS011;5555;59.622;16.556;2023-05-14T02:22:50;9.17;;;6.37;;
11004;SDS011;5555;59.622;16.556;2023-05-14T02:25:15;9.07;;;6.10;;
11004;SDS011;5555;59.622;16.556;2023-05-14T02:27:41;7.47;;;6.63;;
11004;SDS011;5555;59.622;16.556;2023-05-14T02:30:07;8.37;;;6.13;;
11004;SDS011;5555;59.622;16.556;2023-05-14T02:32:33;8.87;;;5.97;;
11004;SDS011;5555;59.622;16.556;2023-05-14T02:34:59;9.73;;;6.93;;
11004;SDS011;5555;59.622;16.556;2023-05-14T02:37:24;7.07;;;6.47;;
11004;SDS011;5555;59.622;16.556;2023-05-14T02:39:50;9.30;;;6.43;;
11004;SDS011;5555;59.622;16.556;2023-05-14T02:42:16;11.97;;;6.43;;
11004;SDS011;5555;59.622;16.556;2023-05-14T02:44:41;7.10;;;6.40;;
11004;SDS011;5555;59.622;16.556;2023-05-14T02:47:07;7.13;;;6.53;;
11004;SDS011;5555;59.622;16.556;2023-05-14T02:49:34;10.97;;;6.80;;
11004;SDS011;5555;59.622;16.556;2023-05-14T02:51:59;9.73;;;6.87;;
11004;SDS011;5555;59.622;16.556;2023-05-14T02:54:25;9.20;;;6.87;;
11004;SDS011;5555;59.622;16.556;2023-05-14T02:56:51;9.70;;;6.93;;
11004;SDS011;5555;59.622;16.556;2023-05-14T02:59:16;8.30;;;7.10;;
11004;SDS011;5555;59.622;16.556;2023-05-14T03:01:42;8.20;;;6.77;;
11004;SDS011;5555;59.622;16.556;2023-05-14T03:04:08;8.80;;;7.23;;
11004;SDS011;5555;59.622;16.556;2023-05-14T03:06:33;7.80;;;7.00;;
11004;SDS011;5555;59.622;16.556;2023-05-14T03:08:59;9.50;;;7.40;;
11004;SDS011;5555;59.622;16.556;2023-05-14T03:11:24;7.77;;;6.80;;
11004;SDS011;5555;59.622;16.556;2023-05-14T03:13:50;8.37;;;6.93;;
11004;SDS011;5555;59.622;16.556;2023-05-14T03:16:16;10.53;;;7.50;;
11004;SDS011;5555;59.622;16.556;2023-05-14T03:18:41;7.90;;;7.10;;
11004;SDS011;5555;59.622;16.556;2023-05-14T03:21:07;9.00;;;7.40;;
11004;SDS011;5555;59.622;16.556;2023-05-14T03:23:33;8.03;;;6.93;;
11004;SDS011;5555;59.622;16.556;2023-05-14T03:25:59;9.73;;;7.20;;
11004;SDS011;5555;59.622;16.556;2023-05-14T03:28:26;7.77;;;7.17;;
11004;SDS011;5555;59.622;16.556;2023-05-14T03:30:51;8.10;;;6.77;;
11004;SDS011;5555;59.622;16.556;2023-05-14T03:33:17;8.77;;;7.07;;
11004;SDS011;5555;59.622;16.556;2023-05-14T03:35:42;9.07;;;7.70;;
11004;SDS011;5555;59.622;16.556;2023-05-14T03:38:08;8.60;;;7.00;;
11004;SDS011;5555;59.622;16.556;2023-05-14T03:40:34;8.00;;;7.30;;
11004;SDS011;5555;59.622;16.556;2023-05-14T03:42:59;9.17;;;7.63;;
11004;SDS011;5555;59.622;16.556;2023-05-14T03:45:25;8.27;;;7.47;;
11004;SDS011;5555;59.622;16.556;2023-05-14T03:47:52;9.93;;;7.20;;
11004;SDS011;5555;59.622;16.556;2023-05-14T03:50:18;7.47;;;6.80;;
11004;SDS011;5555;59.622;16.556;2023-05-14T03:52:44;7.80;;;6.73;;
11004;SDS011;5555;59.622;16.556;2023-05-14T03:55:10;11.27;;;7.10;;
11004;SDS011;5555;59.622;16.556;2023-05-14T03:57:36;9.23;;;7.07;;
11004;SDS011;5555;59.622;16.556;2023-05-14T04:00:02;9.53;;;7.60;;
11004;SDS011;5555;59.622;16.556;2023-05-14T04:02:28;7.87;;;6.97;;
11004;SDS011;5555;59.622;16.556;2023-05-14T04:04:54;10.17;;;7.20;;
11004;SDS011;5555;59.622;16.556;2023-05-14T04:07:19;9.83;;;7.50;;
11004;SDS011;5555;59.622;16.556;2023-05-14T04:09:45;9.33;;;7.33;;
11004;SDS011;5555;59.622;16.556;2023-05-14T04:12:11;10.03;;;7.50;;
11004;SDS011;5555;59.622;16.556;2023-05-14T04:14:36;7.20;;;6.30;;
11004;SDS011;5555;59.622;16.556;2023-05-14T04:17:02;7.87;;;7.07;;
11004;SDS011;5555;59.622;16.556;2023-05-14T04:19:27;8.93;;;6.67;;
11004;SDS011;5555;59.622;16.556;2023-05-14T04:21:53;8.23;;;6.93;;
11004;SDS011;5555;59.622;16.556;2023-05-14T04:24:19;7.27;;;6.43;;
11004;SDS011;5555;59.622;16.556;2023-05-14T04:26:44;7.50;;;6.40;;
11004;SDS011;5555;59.622;16.556;2023-05-14T04:29:10;7.37;;;6.70;;
11004;SDS011;5555;59.622;16.556;2023-05-14T04:31:36;7.80;;;6.97;;
11004;SDS011;5555;59.622;16.556;2023-05-14T04:34:01;7.13;;;6.50;;
11004;SDS011;5555;59.622;16.556;2023-05-14T04:36:27;7.83;;;6.13;;
11004;SDS011;5555;59.622;16.556;2023-05-14T04:38:52;6.73;;;6.10;;
11004;SDS011;5555;59.622;16.556;2023-05-14T04:41:18;8.43;;;6.83;;
11004;SDS011;5555;59.622;16.556;2023-05-14T04:43:45;10.30;;;6.07;;
11004;SDS011;5555;59.622;16.556;2023-05-14T04:46:13;6.63;;;6.03;;
11004;SDS011;5555;59.622;16.556;2023-05-14T04:48:39;7.70;;;6.40;;
11004;SDS011;5555;59.622;16.556;2023-05-14T04:51:05;6.57;;;5.97;;
11004;SDS011;5555;59.622;16.556;2023-05-14T04:53:30;7.23;;;5.97;;
11004;SDS011;5555;59.622;16.556;2023-05-14T04:55:56;6.97;;;5.83;;
11004;SDS011;5555;59.622;16.556;2023-05-14T04:58:21;6.57;;;5.90;;
11004;SDS011;5555;59.622;16.556;2023-05-14T05:00:48;6.53;;;5.60;;
11004;SDS011;5555;59.622;16.556;2023-05-14T05:03:14;6.60;;;5.50;;
11004;SDS011;5555;59.622;16.556;2023-05-14T05:05:39;8.57;;;5.50;;
11004;SDS011;5555;59.622;16.556;2023-05-14T05:08:05;6.70;;;6.17;;
11004;SDS011;5555;59.622;16.556;2023-05-14T05:10:31;6.27;;;5.03;;
11004;SDS011;5555;59.622;16.556;2023-05-14T05:12:56;7.47;;;5.57;;
11004;SDS011;5555;59.622;16.556;2023-05-14T05:15:22;6.50;;;5.23;;
11004;SDS011;5555;59.622;16.556;2023-05-14T05:17:47;6.87;;;5.03;;
11004;SDS011;5555;59.622;16.556;2023-05-14T05:20:13;7.87;;;4.60;;
11004;SDS011;5555;59.622;16.556;2023-05-14T05:22:39;6.37;;;4.83;;
11004;SDS011;5555;59.622;16.556;2023-05-14T05:25:04;6.40;;;5.17;;
11004;SDS011;5555;59.622;16.556;2023-05-14T05:27:32;5.50;;;5.00;;
11004;SDS011;5555;59.622;16.556;2023-05-14T05:29:57;5.93;;;5.20;;
11004;SDS011;5555;59.622;16.556;2023-05-14T05:32:25;6.77;;;5.60;;
11004;SDS011;5555;59.622;16.556;2023-05-14T05:34:50;5.17;;;4.67;;
11004;SDS011;5555;59.622;16.556;2023-05-14T05:37:16;5.23;;;4.83;;
11004;SDS011;5555;59.622;16.556;2023-05-14T05:39:42;5.90;;;5.20;;
11004;SDS011;5555;59.622;16.556;2023-05-14T05:42:07;8.63;;;5.30;;
11004;SDS011;5555;59.622;16.556;2023-05-14T05:44:34;5.17;;;4.70;;
11004;SDS011;5555;59.622;16.556;2023-05-14T05:47:00;11.33;;;4.13;;
11004;SDS011;5555;59.622;16.556;2023-05-14T05:49:25;5.67;;;5.17;;
11004;SDS011;5555;59.622;16.556;2023-05-14T05:51:51;7.77;;;4.47;;
11004;SDS011;5555;59.622;16.556;2023-05-14T05:54:16;5.37;;;4.97;;
11004;SDS011;5555;59.622;16.556;2023-05-14T05:56:42;5.83;;;5.13;;
11004;SDS011;5555;59.622;16.556;2023-05-14T05:59:08;6.13;;;4.73;;
11004;SDS011;5555;59.622;16.556;2023-05-14T06:01:34;6.80;;;4.40;;
11004;SDS011;5555;59.622;16.556;2023-05-14T06:03:59;5.60;;;4.90;;
11004;SDS011;5555;59.622;16.556;2023-05-14T06:06:25;7.50;;;5.03;;
11004;SDS011;5555;59.622;16.556;2023-05-14T06:08:50;6.03;;;5.20;;
11004;SDS011;5555;59.622;16.556;2023-05-14T06:11:16;6.00;;;5.20;;
11004;SDS011;5555;59.622;16.556;2023-05-14T06:13:42;7.00;;;4.77;;
11004;SDS011;5555;59.622;16.556;2023-05-14T06:16:07;4.83;;;4.10;;
11004;SDS011;5555;59.622;16.556;2023-05-14T06:18:33;6.73;;;4.40;;
11004;SDS011;5555;59.622;16.556;2023-05-14T06:20:59;6.30;;;4.90;;
11004;SDS011;5555;59.622;16.556;2023-05-14T06:23:25;6.13;;;4.80;;
11004;SDS011;5555;59.622;16.556;2023-05-14T06:25:51;5.33;;;4.47;;
11004;SDS011;5555;59.622;16.556;2023-05-14T06:28:16;7.97;;;5.17;;
11004;SDS011;5555;59.622;16.556;2023-05-14T06:30:42;6.73;;;4.47;;
11004;SDS011;5555;59.622;16.556;2023-05-14T06:33:08;5.87;;;4.90;;
11004;SDS011;5555;59.622;16.556;2023-05-14T06:35:33;6.37;;;4.77;;
11004;SDS011;5555;59.622;16.556;2023-05-14T06:37:59;7.87;;;5.10;;
11004;SDS011;5555;59.622;16.556;2023-05-14T06:40:25;6.30;;;5.10;;
11004;SDS011;5555;59.622;16.556;2023-05-14T06:42:50;4.97;;;4.57;;
11004;SDS011;5555;59.622;16.556;2023-05-14T06:45:16;5.53;;;5.03;;
11004;SDS011;5555;59.622;16.556;2023-05-14T06:47:41;4.93;;;4.53;;
11004;SDS011;5555;59.622;16.556;2023-05-14T06:50:07;5.20;;;4.70;;
11004;SDS011;5555;59.622;16.556;2023-05-14T06:52:33;5.17;;;4.67;;
11004;SDS011;5555;59.622;16.556;2023-05-14T06:54:59;5.17;;;4.67;;
11004;SDS011;5555;59.622;16.556;2023-05-14T06:57:25;5.93;;;4.60;;
11004;SDS011;5555;59.622;16.556;2023-05-14T06:59:50;6.53;;;4.80;;
11004;SDS011;5555;59.622;16.556;2023-05-14T07:02:16;5.37;;;4.83;;
11004;SDS011;5555;59.622;16.556;2023-05-14T07:04:41;7.23;;;4.93;;
11004;SDS011;5555;59.622;16.556;2023-05-14T07:07:07;5.13;;;4.63;;
11004;SDS011;5555;59.622;16.556;2023-05-14T07:09:34;7.53;;;4.67;;
11004;SDS011;5555;59.622;16.556;2023-05-14T07:12:00;7.13;;;4.20;;
11004;SDS011;5555;59.622;16.556;2023-05-14T07:14:25;5.27;;;4.87;;
11004;SDS011;5555;59.622;16.556;2023-05-14T07:16:51;5.27;;;4.77;;
11004;SDS011;5555;59.622;16.556;2023-05-14T07:19:16;6.60;;;4.50;;
11004;SDS011;5555;59.622;16.556;2023-05-14T07:21:42;8.20;;;5.07;;
11004;SDS011;5555;59.622;16.556;2023-05-14T07:24:08;5.50;;;4.10;;
11004;SDS011;5555;59.622;16.556;2023-05-14T07:26:33;5.40;;;4.73;;
11004;SDS011;5555;59.622;16.556;2023-05-14T07:28:59;6.70;;;5.07;;
11004;SDS011;5555;59.622;16.556;2023-05-14T07:31:25;7.33;;;4.40;;
11004;SDS011;5555;59.622;16.556;2023-05-14T07:33:50;5.67;;;4.37;;
11004;SDS011;5555;59.622;16.556;2023-05-14T07:36:16;5.50;;;4.20;;
11004;SDS011;5555;59.622;16.556;2023-05-14T07:38:41;6.13;;;4.03;;
11004;SDS011;5555;59.622;16.556;2023-05-14T07:41:07;6.77;;;3.77;;
11004;SDS011;5555;59.622;16.556;2023-05-14T07:43:33;5.23;;;3.57;;
11004;SDS011;5555;59.622;16.556;2023-05-14T07:45:58;7.10;;;3.70;;
11004;SDS011;5555;59.622;16.556;2023-05-14T07:48:24;5.43;;;3.87;;
11004;SDS011;5555;59.622;16.556;2023-05-14T07:50:50;4.00;;;3.53;;
11004;SDS011;5555;59.622;16.556;2023-05-14T07:53:15;5.67;;;4.13;;
11004;SDS011;5555;59.622;16.556;2023-05-14T07:55:41;5.00;;;3.70;;
11004;SDS011;5555;59.622;16.556;2023-05-14T07:58:08;5.73;;;3.93;;
11004;SDS011;5555;59.622;16.556;2023-05-14T08:00:34;8.20;;;3.77;;
11004;SDS011;5555;59.622;16.556;2023-05-14T08:03:00;5.10;;;3.80;;
11004;SDS011;5555;59.622;16.556;2023-05-14T08:05:25;4.30;;;3.90;;
11004;SDS011;5555;59.622;16.556;2023-05-14T08:07:51;3.73;;;3.43;;
11004;SDS011;5555;59.622;16.556;2023-05-14T08:10:16;4.93;;;3.77;;
11004;SDS011;5555;59.622;16.556;2023-05-14T08:12:42;3.80;;;3.50;;
11004;SDS011;5555;59.622;16.556;2023-05-14T08:15:08;7.33;;;3.70;;
11004;SDS011;5555;59.622;16.556;2023-05-14T08:17:34;4.37;;;3.60;;
11004;SDS011;5555;59.622;16.556;2023-05-14T08:19:59;4.40;;;3.63;;
11004;SDS011;5555;59.622;16.556;2023-05-14T08:22:26;6.80;;;3.90;;
11004;SDS011;5555;59.622;16.556;2023-05-14T08:24:51;4.20;;;3.80;;
11004;SDS011;5555;59.622;16.556;2023-05-14T08:27:17;3.83;;;3.50;;
11004;SDS011;5555;59.622;16.556;2023-05-14T08:29:42;4.33;;;3.30;;
11004;SDS011;5555;59.622;16.556;2023-05-14T08:32:08;5.57;;;3.80;;
11004;SDS011;5555;59.622;16.556;2023-05-14T08:34:34;4.43;;;3.33;;
11004;SDS011;5555;59.622;16.556;2023-05-14T08:37:00;5.13;;;3.60;;
11004;SDS011;5555;59.622;16.556;2023-05-14T08:39:25;3.97;;;3.57;;
11004;SDS011;5555;59.622;16.556;2023-05-14T08:41:51;4.07;;;3.47;;
11004;SDS011;5555;59.622;16.556;2023-05-14T08:44:19;3.90;;;3.50;;
11004;SDS011;5555;59.622;16.556;2023-05-14T08:46:59;5.83;;;3.60;;
11004;SDS011;5555;59.622;16.556;2023-05-14T08:51:57;5.20;;;3.60;;
11004;SDS011;5555;59.622;16.556;2023-05-14T08:54:24;4.47;;;3.87;;
11004;SDS011;5555;59.622;16.556;2023-05-14T08:56:51;5.27;;;3.60;;
11004;SDS011;5555;59.622;16.556;2023-05-14T08:59:17;7.93;;;3.77;;
11004;SDS011;5555;59.622;16.556;2023-05-14T09:01:45;7.77;;;3.87;;
11004;SDS011;5555;59.622;16.556;2023-05-14T09:04:16;5.03;;;3.30;;
11004;SDS011;5555;59.622;16.556;2023-05-14T09:06:45;6.20;;;3.50;;
11004;SDS011;5555;59.622;16.556;2023-05-14T09:09:14;5.20;;;4.40;;
11004;SDS011;5555;59.622;16.556;2023-05-14T09:11:46;11.93;;;3.97;;
11004;SDS011;5555;59.622;16.556;2023-05-14T09:14:13;3.87;;;3.57;;
11004;SDS011;5555;59.622;16.556;2023-05-14T09:16:39;6.07;;;3.90;;
11004;SDS011;5555;59.622;16.556;2023-05-14T09:19:06;4.40;;;4.00;;
11004;SDS011;5555;59.622;16.556;2023-05-14T09:21:33;6.37;;;4.00;;
11004;SDS011;5555;59.622;16.556;2023-05-14T09:23:59;5.47;;;4.00;;
11004;SDS011;5555;59.622;16.556;2023-05-14T09:26:26;4.43;;;3.53;;
11004;SDS011;5555;59.622;16.556;2023-05-14T09:28:56;6.00;;;4.23;;
11004;SDS011;5555;59.622;16.556;2023-05-14T09:31:29;5.53;;;3.50;;
11004;SDS011;5555;59.622;16.556;2023-05-14T09:33:56;5.03;;;4.20;;
11004;SDS011;5555;59.622;16.556;2023-05-14T09:36:22;6.07;;;4.10;;
11004;SDS011;5555;59.622;16.556;2023-05-14T09:38:52;5.40;;;4.10;;
11004;SDS011;5555;59.622;16.556;2023-05-14T09:41:20;4.13;;;3.80;;
11004;SDS011;5555;59.622;16.556;2023-05-14T09:43:47;5.47;;;4.27;;
11004;SDS011;5555;59.622;16.556;2023-05-14T09:46:13;7.50;;;4.20;;
11004;SDS011;5555;59.622;16.556;2023-05-14T09:48:39;4.63;;;4.13;;
11004;SDS011;5555;59.622;16.556;2023-05-14T09:51:05;6.67;;;4.17;;
11004;SDS011;5555;59.622;16.556;2023-05-14T09:53:31;6.00;;;3.53;;
11004;SDS011;5555;59.622;16.556;2023-05-14T09:55:58;4.43;;;4.03;;
11004;SDS011;5555;59.622;16.556;2023-05-14T09:58:24;5.13;;;3.67;;
11004;SDS011;5555;59.622;16.556;2023-05-14T10:00:50;4.67;;;3.97;;
11004;SDS011;5555;59.622;16.556;2023-05-14T10:03:17;5.57;;;3.57;;
11004;SDS011;5555;59.622;16.556;2023-05-14T10:05:45;5.13;;;3.77;;
11004;SDS011;5555;59.622;16.556;2023-05-14T10:08:18;5.38;;;3.90;;
11004;SDS011;5555;59.622;16.556;2023-05-14T10:10:50;4.23;;;3.50;;
11004;SDS011;5555;59.622;16.556;2023-05-14T10:13:19;5.18;;;3.95;;
11004;SDS011;5555;59.622;16.556;2023-05-14T10:15:47;5.10;;;4.17;;
11004;SDS011;5555;59.622;16.556;2023-05-14T10:18:18;5.25;;;3.50;;
11004;SDS011;5555;59.622;16.556;2023-05-14T10:20:51;4.07;;;3.17;;
11004;SDS011;5555;59.622;16.556;2023-05-14T10:23:22;5.22;;;3.15;;
11004;SDS011;5555;59.622;16.556;2023-05-14T10:25:48;4.43;;;3.40;;
11004;SDS011;5555;59.622;16.556;2023-05-14T10:28:14;9.95;;;4.13;;
11004;SDS011;5555;59.622;16.556;2023-05-14T10:30:42;5.13;;;3.25;;
11004;SDS011;5555;59.622;16.556;2023-05-14T10:33:11;5.43;;;3.53;;
11004;SDS011;5555;59.622;16.556;2023-05-14T10:38:28;4.68;;;3.35;;
11004;SDS011;5555;59.622;16.556;2023-05-14T10:41:14;7.57;;;3.00;;
11004;SDS011;5555;59.622;16.556;2023-05-14T10:43:42;7.53;;;3.13;;
11004;SDS011;5555;59.622;16.556;2023-05-14T10:46:09;3.13;;;2.83;;
11004;SDS011;5555;59.622;16.556;2023-05-14T10:48:37;4.75;;;2.80;;
11004;SDS011;5555;59.622;16.556;2023-05-14T10:51:09;4.03;;;2.72;;
11004;SDS011;5555;59.622;16.556;2023-05-14T10:53:39;4.32;;;3.15;;
11004;SDS011;5555;59.622;16.556;2023-05-14T10:56:11;6.75;;;3.05;;
11004;SDS011;5555;59.622;16.556;2023-05-14T10:58:38;4.07;;;2.85;;
11004;SDS011;5555;59.622;16.556;2023-05-14T11:01:10;3.85;;;2.65;;
11004;SDS011;5555;59.622;16.556;2023-05-14T11:06:06;4.38;;;2.90;;
11004;SDS011;5555;59.622;16.556;2023-05-14T11:08:33;3.55;;;2.60;;
11004;SDS011;5555;59.622;16.556;2023-05-14T11:10:59;3.88;;;2.63;;
11004;SDS011;5555;59.622;16.556;2023-05-14T11:13:25;3.70;;;3.03;;
11004;SDS011;5555;59.622;16.556;2023-05-14T11:15:51;2.88;;;2.47;;
11004;SDS011;5555;59.622;16.556;2023-05-14T11:18:30;5.10;;;2.80;;
11004;SDS011;5555;59.622;16.556;2023-05-14T11:21:04;3.05;;;2.65;;
11004;SDS011;5555;59.622;16.556;2023-05-14T11:23:30;4.85;;;2.65;;
11004;SDS011;5555;59.622;16.556;2023-05-14T11:25:56;5.35;;;2.22;;
11004;SDS011;5555;59.622;16.556;2023-05-14T11:28:22;3.72;;;2.80;;
11004;SDS011;5555;59.622;16.556;2023-05-14T11:30:50;5.63;;;2.78;;
11004;SDS011;5555;59.622;16.556;2023-05-14T11:33:16;3.22;;;2.47;;
11004;SDS011;5555;59.622;16.556;2023-05-14T11:35:43;5.35;;;2.42;;
11004;SDS011;5555;59.622;16.556;2023-05-14T11:38:13;4.63;;;2.83;;
11004;SDS011;5555;59.622;16.556;2023-05-14T11:40:40;8.27;;;2.15;;
11004;SDS011;5555;59.622;16.556;2023-05-14T11:43:05;6.70;;;2.83;;
11004;SDS011;5555;59.622;16.556;2023-05-14T11:45:32;3.83;;;2.03;;
11004;SDS011;5555;59.622;16.556;2023-05-14T11:47:58;4.65;;;2.22;;
11004;SDS011;5555;59.622;16.556;2023-05-14T11:50:23;3.85;;;2.22;;
11004;SDS011;5555;59.622;16.556;2023-05-14T11:52:49;4.38;;;2.50;;
11004;SDS011;5555;59.622;16.556;2023-05-14T11:55:15;3.75;;;2.42;;
11004;SDS011;5555;59.622;16.556;2023-05-14T11:57:41;2.13;;;2.00;;
11004;SDS011;5555;59.622;16.556;2023-05-14T12:00:08;9.57;;;2.90;;
11004;SDS011;5555;59.622;16.556;2023-05-14T12:02:40;2.58;;;1.90;;
11004;SDS011;5555;59.622;16.556;2023-05-14T12:05:06;2.80;;;2.05;;
11004;SDS011;5555;59.622;16.556;2023-05-14T12:07:33;3.70;;;2.10;;
11004;SDS011;5555;59.622;16.556;2023-05-14T12:09:59;3.58;;;1.88;;
11004;SDS011;5555;59.622;16.556;2023-05-14T12:12:27;2.83;;;2.10;;
11004;SDS011;5555;59.622;16.556;2023-05-14T12:15:00;2.50;;;1.70;;
11004;SDS011;5555;59.622;16.556;2023-05-14T12:17:26;2.63;;;1.90;;
11004;SDS011;5555;59.622;16.556;2023-05-14T12:19:51;4.60;;;1.70;;
11004;SDS011;5555;59.622;16.556;2023-05-14T12:22:18;3.88;;;2.30;;
11004;SDS011;5555;59.622;16.556;2023-05-14T12:24:57;3.92;;;1.80;;
11004;SDS011;5555;59.622;16.556;2023-05-14T12:27:24;4.18;;;2.20;;
11004;SDS011;5555;59.622;16.556;2023-05-14T12:29:58;6.82;;;2.15;;
11004;SDS011;5555;59.622;16.556;2023-05-14T12:32:24;2.40;;;1.70;;
11004;SDS011;5555;59.622;16.556;2023-05-14T12:34:50;5.15;;;1.95;;
11004;SDS011;5555;59.622;16.556;2023-05-14T12:37:16;3.47;;;1.85;;
11004;SDS011;5555;59.622;16.556;2023-05-14T12:39:42;2.75;;;1.73;;
11004;SDS011;5555;59.622;16.556;2023-05-14T12:42:08;5.57;;;2.30;;
11004;SDS011;5555;59.622;16.556;2023-05-14T12:44:34;4.07;;;1.90;;
11004;SDS011;5555;59.622;16.556;2023-05-14T12:46:59;2.55;;;1.70;;
11004;SDS011;5555;59.622;16.556;2023-05-14T12:49:25;5.45;;;2.05;;
11004;SDS011;5555;59.622;16.556;2023-05-14T12:51:51;3.00;;;1.98;;
11004;SDS011;5555;59.622;16.556;2023-05-14T12:54:17;3.40;;;2.28;;
11004;SDS011;5555;59.622;16.556;2023-05-14T12:56:43;3.97;;;1.90;;
11004;SDS011;5555;59.622;16.556;2023-05-14T12:59:08;2.58;;;2.10;;
11004;SDS011;5555;59.622;16.556;2023-05-14T13:01:34;2.58;;;1.90;;
11004;SDS011;5555;59.622;16.556;2023-05-14T13:04:02;2.28;;;1.85;;
11004;SDS011;5555;59.622;16.556;2023-05-14T13:06:28;3.05;;;1.80;;
11004;SDS011;5555;59.622;16.556;2023-05-14T13:08:53;4.60;;;2.03;;
11004;SDS011;5555;59.622;16.556;2023-05-14T13:11:20;2.17;;;1.77;;
11004;SDS011;5555;59.622;16.556;2023-05-14T13:13:46;4.18;;;1.98;;
11004;SDS011;5555;59.622;16.556;2023-05-14T13:16:12;4.82;;;2.00;;
11004;SDS011;5555;59.622;16.556;2023-05-14T13:18:40;4.47;;;2.05;;
11004;SDS011;5555;59.622;16.556;2023-05-14T13:21:06;2.88;;;2.00;;
11004;SDS011;5555;59.622;16.556;2023-05-14T13:23:32;3.72;;;2.10;;
11004;SDS011;5555;59.622;16.556;2023-05-14T13:25:57;3.38;;;2.17;;
11004;SDS011;5555;59.622;16.556;2023-05-14T13:28:23;4.30;;;2.20;;
11004;SDS011;5555;59.622;16.556;2023-05-14T13:31:02;1.90;;;1.73;;
11004;SDS011;5555;59.622;16.556;2023-05-14T13:33:30;4.47;;;1.90;;
11004;SDS011;5555;59.622;16.556;2023-05-14T13:35:56;2.03;;;1.80;;
11004;SDS011;5555;59.622;16.556;2023-05-14T13:38:21;2.25;;;1.80;;
11004;SDS011;5555;59.622;16.556;2023-05-14T13:40:47;3.78;;;2.03;;
11004;SDS011;5555;59.622;16.556;2023-05-14T13:43:13;3.63;;;2.05;;
11004;SDS011;5555;59.622;16.556;2023-05-14T13:45:40;3.83;;;2.17;;
11004;SDS011;5555;59.622;16.556;2023-05-14T13:48:06;3.75;;;2.50;;
11004;SDS011;5555;59.622;16.556;2023-05-14T13:50:32;5.93;;;2.38;;
11004;SDS011;5555;59.622;16.556;2023-05-14T13:52:57;4.20;;;2.45;;
11004;SDS011;5555;59.622;16.556;2023-05-14T13:55:23;4.18;;;2.42;;
11004;SDS011;5555;59.622;16.556;2023-05-14T13:57:48;5.07;;;2.65;;
11004;SDS011;5555;59.622;16.556;2023-05-14T14:00:14;6.68;;;2.95;;
11004;SDS011;5555;59.622;16.556;2023-05-14T14:02:40;3.47;;;2.45;;
11004;SDS011;5555;59.622;16.556;2023-05-14T14:05:06;4.35;;;2.90;;
11004;SDS011;5555;59.622;16.556;2023-05-14T14:07:32;5.25;;;3.00;;
11004;SDS011;5555;59.622;16.556;2023-05-14T14:09:58;4.07;;;2.78;;
11004;SDS011;5555;59.622;16.556;2023-05-14T14:12:25;6.15;;;2.75;;
11004;SDS011;5555;59.622;16.556;2023-05-14T14:14:51;4.28;;;3.25;;
11004;SDS011;5555;59.622;16.556;2023-05-14T14:17:17;6.00;;;3.08;;
11004;SDS011;5555;59.622;16.556;2023-05-14T14:19:42;7.10;;;2.63;;
11004;SDS011;5555;59.622;16.556;2023-05-14T14:22:08;5.25;;;2.78;;
11004;SDS011;5555;59.622;16.556;2023-05-14T14:24:33;4.85;;;2.92;;
11004;SDS011;5555;59.622;16.556;2023-05-14T14:26:59;6.63;;;2.83;;
11004;SDS011;5555;59.622;16.556;2023-05-14T14:29:26;6.97;;;3.35;;
11004;SDS011;5555;59.622;16.556;2023-05-14T14:31:52;3.72;;;2.97;;
11004;SDS011;5555;59.622;16.556;2023-05-14T14:34:18;5.57;;;2.90;;
11004;SDS011;5555;59.622;16.556;2023-05-14T14:36:44;5.32;;;2.75;;
11004;SDS011;5555;59.622;16.556;2023-05-14T14:39:09;3.33;;;2.90;;
11004;SDS011;5555;59.622;16.556;2023-05-14T14:41:35;13.07;;;3.10;;
11004;SDS011;5555;59.622;16.556;2023-05-14T14:44:01;4.80;;;2.37;;
11004;SDS011;5555;59.622;16.556;2023-05-14T14:46:27;6.57;;;2.80;;
11004;SDS011;5555;59.622;16.556;2023-05-14T14:48:52;6.03;;;3.17;;
11004;SDS011;5555;59.622;16.556;2023-05-14T14:51:18;3.43;;;2.80;;
11004;SDS011;5555;59.622;16.556;2023-05-14T14:53:44;3.23;;;2.50;;
11004;SDS011;5555;59.622;16.556;2023-05-14T14:56:09;3.00;;;2.57;;
11004;SDS011;5555;59.622;16.556;2023-05-14T14:58:35;3.70;;;2.70;;
11004;SDS011;5555;59.622;16.556;2023-05-14T15:01:01;9.30;;;3.13;;